Duluth, Georgia
Current Conditions -  °F | °C
As of 11:53 AM on Sunday 23 Nov 2014 (Local Time) from KPDK Reporting Station
Haze Haze  
Wind Chill: 50°   Ceiling: 500
Heat Index: 50°   Visibility: 1.5mi
Dew Point: 48°   Wind: 6mph
Humidity: 93%   Direction: 70°ENE
Pressure: 29.93"   Gusts: NA
Location:  34°N, 84.14°W
Report Text: KPDK 231653Z 07005KT 1 1/2SM BR OVC005 10/09 A2993 RMK AO2 SFC VIS 5 RAE41 PRESFR SLP137 P0002 T01000089
Loading
Personal Weather Stations






























Interactive Weather Map New forecast layout! Learn more

10-Day Weather Forecast

Advertisements
Track Severe Weather on mobile